Time;durP1;ratioP1;P1;durP2;ratioP2;P2;SDS_P1;SDS_P2;PMS_P1;PMS_P2;Temp;Humidity;BMP_temperature;BMP_pressure;BME280_temperature;BME280_humidity;BME280_pressure;Samples;Min_cycle;Max_cycle;Signal;HPM_P1;HPM_P2
2022/12/25 00:01:20;;;;;;;1999.90;999.90;;;7.30;99.90;;;;;;5049186;28;20112;-88
2022/12/25 00:03:45;;;;;;;1999.90;999.90;;;7.40;99.90;;;;;;5050097;28;20029;-88
2022/12/25 00:06:11;;;;;;;1999.90;999.90;;;7.40;99.90;;;;;;5053132;28;20376;-88
2022/12/25 00:08:39;;;;;;;1999.90;999.90;;;7.30;99.90;;;;;;5050406;28;20432;-88
2022/12/25 00:11:11;;;;;;;1999.90;999.90;;;7.30;99.90;;;;;;5050881;28;20024;-88
2022/12/25 00:13:37;;;;;;;1999.90;999.90;;;7.20;99.90;;;;;;5048081;28;20037;-88
2022/12/25 00:16:15;;;;;;;1999.90;999.90;;;7.10;99.90;;;;;;5049621;28;20029;-87
2022/12/25 00:18:41;;;;;;;1999.90;999.90;;;7.00;99.90;;;;;;5036406;28;20095;-87
2022/12/25 00:21:07;;;;;;;1999.90;999.90;;;7.00;99.90;;;;;;5051655;28;20045;-86
2022/12/25 00:23:33;;;;;;;1999.90;999.90;;;6.90;99.90;;;;;;5052401;28;20032;-87
2022/12/25 00:26:06;;;;;;;1999.90;999.90;;;6.90;99.90;;;;;;5051720;28;20032;-85
2022/12/25 00:28:32;;;;;;;1999.90;999.90;;;6.90;99.90;;;;;;5051184;28;20033;-87
2022/12/25 00:30:58;;;;;;;1999.90;999.90;;;6.90;99.90;;;;;;5052545;28;20087;-86
2022/12/25 00:33:24;;;;;;;1999.90;999.90;;;6.90;99.90;;;;;;5049346;28;20082;-88
2022/12/25 00:36:00;;;;;;;1999.90;999.90;;;6.80;99.90;;;;;;5051692;28;20103;-87
2022/12/25 00:38:26;;;;;;;1999.90;999.90;;;6.80;99.90;;;;;;5050403;28;20036;-87
2022/12/25 00:40:52;;;;;;;1999.90;999.90;;;6.80;99.90;;;;;;5050250;28;20723;-87
2022/12/25 00:43:18;;;;;;;1999.90;999.90;;;6.90;99.90;;;;;;5054267;28;20028;-88
2022/12/25 00:45:53;;;;;;;1999.90;999.90;;;6.90;99.90;;;;;;5050716;28;20044;-88
2022/12/25 00:48:23;;;;;;;1999.90;999.90;;;6.90;99.90;;;;;;5052734;28;20120;-88
2022/12/25 00:50:56;;;;;;;1999.90;999.90;;;7.00;99.90;;;;;;5049624;28;20037;-88
2022/12/25 00:53:22;;;;;;;1999.90;999.90;;;7.00;99.90;;;;;;5051854;28;20032;-87
2022/12/25 00:55:57;;;;;;;1999.90;999.90;;;7.00;99.90;;;;;;5051463;28;20029;-88
2022/12/25 00:58:24;;;;;;;1999.90;999.90;;;7.00;99.90;;;;;;5049818;28;20029;-88
2022/12/25 01:00:50;;;;;;;1999.90;999.90;;;7.10;99.90;;;;;;5053270;28;20049;-88
2022/12/25 01:03:17;;;;;;;1999.90;999.90;;;7.10;99.90;;;;;;5051825;28;20021;-87
2022/12/25 01:05:43;;;;;;;1999.90;999.90;;;7.00;99.90;;;;;;5051962;28;20078;-87
2022/12/25 01:08:09;;;;;;;1999.90;999.90;;;7.00;99.90;;;;;;5051687;28;20021;-88
2022/12/25 01:10:35;;;;;;;1999.90;999.90;;;7.00;99.90;;;;;;5036884;28;20064;-86
2022/12/25 01:13:01;;;;;;;1999.90;999.90;;;7.10;99.90;;;;;;5051188;28;20061;-87
2022/12/25 01:15:26;;;;;;;1999.90;999.90;;;7.20;99.90;;;;;;5051372;28;20025;-87
2022/12/25 01:17:52;;;;;;;1999.90;999.90;;;7.20;99.90;;;;;;5050464;28;20463;-87
2022/12/25 01:20:18;;;;;;;1999.90;999.90;;;7.20;99.90;;;;;;5052145;28;20571;-87
2022/12/25 01:22:44;;;;;;;1999.90;999.90;;;7.10;99.90;;;;;;5049545;28;20112;-87
2022/12/25 01:25:11;;;;;;;1999.90;999.90;;;7.00;99.90;;;;;;5048162;28;20082;-87
2022/12/25 01:27:38;;;;;;;1999.90;999.90;;;7.00;99.90;;;;;;5049522;28;20029;-87
2022/12/25 01:30:06;;;;;;;1999.90;999.90;;;7.10;99.90;;;;;;5051133;28;20029;-87
2022/12/25 01:32:32;;;;;;;1999.90;999.90;;;7.10;99.90;;;;;;5054276;28;20061;-87
2022/12/25 01:34:57;;;;;;;1999.90;999.90;;;7.10;99.90;;;;;;5052189;28;20557;-88
2022/12/25 01:37:24;;;;;;;1999.90;999.90;;;7.10;99.90;;;;;;5050423;28;20607;-88
2022/12/25 01:39:50;;;;;;;1999.90;999.90;;;7.20;99.90;;;;;;5049126;28;20114;-88
2022/12/25 01:42:22;;;;;;;1999.90;999.90;;;7.10;99.90;;;;;;5050614;28;20120;-86
2022/12/25 01:44:48;;;;;;;1999.90;999.90;;;7.10;99.90;;;;;;5054224;28;20044;-88
2022/12/25 01:47:16;;;;;;;1999.90;999.90;;;7.20;99.90;;;;;;5048768;28;20102;-88
2022/12/25 01:49:46;;;;;;;1999.90;999.90;;;7.10;99.90;;;;;;5049718;28;20387;-87
2022/12/25 01:52:23;;;;;;;1999.90;999.90;;;7.20;99.90;;;;;;5049248;28;20037;-87
2022/12/25 01:54:56;;;;;;;1999.90;999.90;;;7.30;99.90;;;;;;5050026;28;20384;-87
2022/12/25 01:57:26;;;;;;;1999.90;999.90;;;7.20;99.90;;;;;;5049550;28;20249;-88
2022/12/25 01:59:52;;;;;;;1999.90;999.90;;;7.20;99.90;;;;;;5049511;28;20094;-87
2022/12/25 02:02:19;;;;;;;1999.90;999.90;;;7.20;99.90;;;;;;5041373;28;20066;-87
2022/12/25 02:05:09;;;;;;;1999.90;999.90;;;7.10;99.90;;;;;;5050936;28;20029;-88
2022/12/25 02:07:37;;;;;;;1999.90;999.90;;;7.20;99.90;;;;;;5048617;28;20032;-87
2022/12/25 02:10:03;;;;;;;1999.90;999.90;;;7.20;99.90;;;;;;5045103;28;20086;-86
2022/12/25 02:12:32;;;;;;;1999.90;999.90;;;7.30;99.90;;;;;;5050017;28;20119;-87
2022/12/25 02:15:02;;;;;;;1999.90;999.90;;;7.30;99.90;;;;;;5043861;28;20503;-88
2022/12/25 02:17:46;;;;;;;1999.90;999.90;;;7.40;99.90;;;;;;5049450;28;20025;-87
2022/12/25 02:20:29;;;;;;;1999.90;999.90;;;7.20;99.90;;;;;;5045483;28;20287;-88
2022/12/25 02:23:16;;;;;;;1999.90;999.90;;;7.30;99.90;;;;;;5045382;28;20478;-87
2022/12/25 02:26:19;;;;;;;1999.90;999.90;;;7.20;99.90;;;;;;5045842;28;20538;-87
2022/12/25 02:29:08;;;;;;;1999.90;999.90;;;7.30;99.90;;;;;;5047943;28;20033;-87
2022/12/25 02:32:01;;;;;;;1999.90;999.90;;;7.30;99.90;;;;;;5049170;28;20040;-86
2022/12/25 02:34:36;;;;;;;1999.90;999.90;;;7.30;99.90;;;;;;5045672;28;20067;-86
2022/12/25 02:37:54;;;;;;;1999.90;999.90;;;7.30;99.90;;;;;;5047322;28;20032;-87
2022/12/25 02:40:29;;;;;;;1999.90;999.90;;;7.20;99.90;;;;;;5043509;28;20055;-87
2022/12/25 03:08:32;;;;;;;1999.90;999.90;;;7.30;99.90;;;;;;5047305;28;20605;-87
2022/12/25 03:13:51;;;;;;;1999.90;999.90;;;7.10;99.90;;;;;;5049571;28;20411;-89
2022/12/25 03:26:53;;;;;;;1999.90;999.90;;;7.30;99.90;;;;;;5048218;28;20519;-88
2022/12/25 03:27:16;;;;;;;1999.90;999.90;;;7.10;99.90;;;;;;5047188;28;20071;-87
2022/12/25 03:32:41;;;;;;;1999.90;999.90;;;7.00;99.90;;;;;;5049704;28;20036;-86
2022/12/25 03:35:43;;;;;;;1999.90;999.90;;;7.10;99.90;;;;;;5046732;28;20067;-87
2022/12/25 04:37:15;;;;;;;1999.90;999.90;;;6.80;99.90;;;;;;5047305;28;20087;-87
2022/12/25 04:39:40;;;;;;;1999.90;999.90;;;6.70;99.90;;;;;;5053718;28;20033;-87
2022/12/25 04:42:06;;;;;;;1999.90;999.90;;;6.70;99.90;;;;;;5058488;28;20040;-86
2022/12/25 04:44:32;;;;;;;1999.90;999.90;;;6.60;99.90;;;;;;5052009;28;20103;-87
2022/12/25 04:46:57;;;;;;;1999.90;999.90;;;6.60;99.90;;;;;;5054588;28;20040;-87
2022/12/25 04:49:23;;;;;;;1999.90;999.90;;;6.50;99.90;;;;;;5050509;28;20546;-87
2022/12/25 04:51:48;;;;;;;1999.90;999.90;;;6.40;99.90;;;;;;5050783;28;20067;-88
2022/12/25 04:54:14;;;;;;;1999.90;999.90;;;6.40;99.90;;;;;;5053056;28;20365;-88
2022/12/25 04:56:40;;;;;;;1999.90;999.90;;;6.30;99.90;;;;;;5034829;28;20549;-86
2022/12/25 04:59:05;;;;;;;1999.90;999.90;;;6.30;99.90;;;;;;5057019;28;20538;-87
2022/12/25 05:01:31;;;;;;;1999.90;999.90;;;6.30;99.90;;;;;;5050169;28;20029;-87
2022/12/25 05:03:57;;;;;;;1999.90;999.90;;;6.40;99.90;;;;;;5035656;28;20033;-87
2022/12/25 05:06:22;;;;;;;1999.90;999.90;;;6.40;99.90;;;;;;5041712;28;20578;-87
2022/12/25 05:08:48;;;;;;;1999.90;999.90;;;6.40;99.90;;;;;;5032506;28;20175;-87
2022/12/25 05:11:15;;;;;;;1999.90;999.90;;;6.40;99.90;;;;;;5048934;28;20483;-87
2022/12/25 05:13:40;;;;;;;1999.90;999.90;;;6.30;99.90;;;;;;5040701;28;20059;-86
2022/12/25 05:16:08;;;;;;;1999.90;999.90;;;6.40;99.90;;;;;;5049609;28;21607;-87
2022/12/25 05:18:34;;;;;;;1999.90;999.90;;;6.30;99.90;;;;;;5050067;28;20159;-87
2022/12/25 05:21:00;;;;;;;1999.90;999.90;;;6.30;99.90;;;;;;5047908;28;20491;-87
2022/12/25 05:23:25;;;;;;;1999.90;999.90;;;6.20;99.90;;;;;;5048370;28;20033;-87
2022/12/25 05:25:51;;;;;;;1999.90;999.90;;;6.20;99.90;;;;;;5047955;28;20048;-87
2022/12/25 05:28:18;;;;;;;1999.90;999.90;;;6.20;99.90;;;;;;5047660;28;20033;-86
2022/12/25 05:30:44;;;;;;;1999.90;999.90;;;6.20;99.90;;;;;;5043230;28;20047;-87
2022/12/25 05:33:10;;;;;;;1999.90;999.90;;;6.20;99.90;;;;;;5031406;28;20555;-86
2022/12/25 05:35:37;;;;;;;1999.90;999.90;;;6.20;99.90;;;;;;5049528;28;20029;-87
2022/12/25 05:38:03;;;;;;;1999.90;999.90;;;6.20;99.90;;;;;;5050020;28;20510;-86
2022/12/25 05:40:28;;;;;;;1999.90;999.90;;;6.30;99.90;;;;;;5048649;28;20486;-87
2022/12/25 05:42:54;;;;;;;1999.90;999.90;;;6.20;99.90;;;;;;5050415;28;20041;-87
2022/12/25 05:45:19;;;;;;;1999.90;999.90;;;6.20;99.90;;;;;;5048578;28;20036;-86
2022/12/25 05:47:45;;;;;;;1999.90;999.90;;;6.20;99.90;;;;;;5046701;28;20036;-86
2022/12/25 05:50:11;;;;;;;1999.90;999.90;;;6.20;99.90;;;;;;5049589;28;20461;-86
2022/12/25 05:52:36;;;;;;;1999.90;999.90;;;6.30;99.90;;;;;;5048100;28;20041;-87
2022/12/25 05:55:02;;;;;;;1999.90;999.90;;;6.30;99.90;;;;;;5048111;28;20021;-87
2022/12/25 05:57:29;;;;;;;1999.90;999.90;;;6.20;99.90;;;;;;5051480;28;20024;-88
2022/12/25 05:59:54;;;;;;;1999.90;999.90;;;6.30;99.90;;;;;;5050084;28;20048;-88
2022/12/25 06:02:20;;;;;;;1999.90;999.90;;;6.30;99.90;;;;;;5047539;28;20029;-88
2022/12/25 06:04:46;;;;;;;1999.90;999.90;;;6.20;99.90;;;;;;5050544;28;20051;-87
2022/12/25 06:07:12;;;;;;;1999.90;999.90;;;6.00;99.90;;;;;;5047685;28;20029;-87
2022/12/25 06:09:37;;;;;;;1999.90;999.90;;;6.00;99.90;;;;;;5048125;28;20041;-88
2022/12/25 06:12:03;;;;;;;1999.90;999.90;;;6.00;99.90;;;;;;5050018;28;20041;-85
2022/12/25 06:14:29;;;;;;;1999.90;999.90;;;6.00;99.90;;;;;;5045471;28;20041;-87
2022/12/25 06:16:54;;;;;;;1999.90;999.90;;;6.10;99.90;;;;;;5048761;28;20036;-87
2022/12/25 06:19:20;;;;;;;1999.90;999.90;;;6.00;99.90;;;;;;5047761;28;20029;-87
2022/12/25 06:21:46;;;;;;;1999.90;999.90;;;6.00;99.90;;;;;;5047328;28;20450;-87
2022/12/25 06:24:12;;;;;;;1999.90;999.90;;;6.10;99.90;;;;;;5043778;28;20032;-86
2022/12/25 06:26:38;;;;;;;1999.90;999.90;;;6.00;99.90;;;;;;5049730;28;20037;-88
2022/12/25 06:29:03;;;;;;;1999.90;999.90;;;6.00;99.90;;;;;;5051646;28;20509;-87
2022/12/25 06:31:30;;;;;;;1999.90;999.90;;;6.00;99.90;;;;;;5048209;28;20052;-87
2022/12/25 06:33:56;;;;;;;1999.90;999.90;;;6.00;99.90;;;;;;5050442;28;20044;-85
2022/12/25 06:36:38;;;;;;;1999.90;999.90;;;6.00;99.90;;;;;;5049097;28;20070;-87
2022/12/25 06:39:04;;;;;;;1999.90;999.90;;;6.00;99.90;;;;;;5047411;28;20033;-85
2022/12/25 06:41:30;;;;;;;1999.90;999.90;;;5.90;99.90;;;;;;5041144;28;20051;-87
2022/12/25 06:43:58;;;;;;;1999.90;999.90;;;5.90;99.90;;;;;;5046986;28;20041;-88
2022/12/25 06:46:26;;;;;;;1999.90;999.90;;;5.80;99.90;;;;;;5048342;28;20079;-86
2022/12/25 06:48:52;;;;;;;1999.90;999.90;;;5.80;99.90;;;;;;5049870;28;20037;-87
2022/12/25 06:51:21;;;;;;;1999.90;999.90;;;5.80;99.90;;;;;;5047572;28;20055;-87
2022/12/25 06:53:48;;;;;;;1999.90;999.90;;;5.80;99.90;;;;;;5048098;28;20544;-88
2022/12/25 06:56:17;;;;;;;1999.90;999.90;;;5.70;99.90;;;;;;5030743;28;20056;-88
2022/12/25 06:58:48;;;;;;;1999.90;999.90;;;5.70;99.90;;;;;;5046871;28;20031;-86
2022/12/25 07:01:20;;;;;;;1999.90;999.90;;;5.70;99.90;;;;;;5036874;28;20529;-86
2022/12/25 07:03:48;;;;;;;1999.90;999.90;;;5.60;99.90;;;;;;5054551;28;20752;-87
2022/12/25 07:06:14;;;;;;;1999.90;999.90;;;5.60;99.90;;;;;;5060953;28;20111;-87
2022/12/25 07:08:40;;;;;;;1999.90;999.90;;;5.50;99.90;;;;;;5052409;28;20418;-86
2022/12/25 07:11:06;;;;;;;1999.90;999.90;;;5.40;99.90;;;;;;5049655;28;20538;-87
2022/12/25 07:13:32;;;;;;;1999.90;999.90;;;5.30;99.90;;;;;;5048094;28;20025;-87
2022/12/25 07:16:00;;;;;;;1999.90;999.90;;;5.30;99.90;;;;;;5048762;28;20032;-87
2022/12/25 07:18:46;;;;;;;1999.90;999.90;;;5.30;99.90;;;;;;5053005;28;20039;-87
2022/12/25 07:21:14;;;;;;;1999.90;999.90;;;5.20;99.90;;;;;;5029714;28;20035;-86
2022/12/25 07:23:41;;;;;;;1999.90;999.90;;;5.10;99.90;;;;;;5061484;28;20047;-87
2022/12/25 07:26:08;;;;;;;1999.90;999.90;;;5.00;99.90;;;;;;5056067;28;20094;-86
2022/12/25 07:28:34;;;;;;;1999.90;999.90;;;5.00;99.90;;;;;;5055364;28;20028;-86
2022/12/25 07:31:05;;;;;;;1999.90;999.90;;;4.80;99.90;;;;;;5055416;28;20036;-88
2022/12/25 07:33:31;;;;;;;1999.90;999.90;;;4.70;99.90;;;;;;5052317;28;20024;-88
2022/12/25 07:35:56;;;;;;;1999.90;999.90;;;4.70;99.90;;;;;;5056723;28;20033;-87
2022/12/25 07:38:22;;;;;;;1999.90;999.90;;;4.70;99.90;;;;;;5050294;28;20056;-88
2022/12/25 07:40:48;;;;;;;1999.90;999.90;;;4.70;99.90;;;;;;5051400;28;20642;-88
2022/12/25 07:43:14;;;;;;;1999.90;999.90;;;4.80;99.90;;;;;;5048795;28;20522;-87
2022/12/25 07:45:39;;;;;;;1999.90;999.90;;;5.00;99.90;;;;;;5050077;28;20033;-88
2022/12/25 07:48:06;;;;;;;1999.90;999.90;;;4.90;99.90;;;;;;5052330;28;20032;-89
2022/12/25 07:50:32;;;;;;;1999.90;999.90;;;4.70;99.90;;;;;;5048369;28;20030;-87
2022/12/25 07:52:57;;;;;;;1999.90;999.90;;;4.60;99.90;;;;;;5056623;28;20457;-88
2022/12/25 07:55:23;;;;;;;1999.90;999.90;;;4.70;99.90;;;;;;5049741;28;20029;-80
2022/12/25 07:57:49;;;;;;;1999.90;999.90;;;4.70;99.90;;;;;;5050311;28;20124;-87
2022/12/25 08:00:15;;;;;;;1999.90;999.90;;;4.70;99.90;;;;;;5054303;28;20044;-86
2022/12/25 08:02:40;;;;;;;1999.90;999.90;;;4.80;99.90;;;;;;5045139;28;20084;-85
2022/12/25 08:05:07;;;;;;;1999.90;999.90;;;4.60;99.90;;;;;;5045884;28;20092;-85
2022/12/25 08:07:34;;;;;;;1999.90;999.90;;;4.80;99.90;;;;;;5046324;28;20043;-89
2022/12/25 08:10:01;;;;;;;1999.90;999.90;;;4.90;99.90;;;;;;5047925;28;20036;-82
2022/12/25 08:12:26;;;;;;;1999.90;999.90;;;5.00;99.90;;;;;;5047470;28;20025;-85
2022/12/25 08:14:52;;;;;;;1999.90;999.90;;;5.00;99.90;;;;;;5049480;28;20526;-88
2022/12/25 08:17:17;;;;;;;1999.90;999.90;;;5.10;99.90;;;;;;5049649;28;20037;-85
2022/12/25 08:19:44;;;;;;;1999.90;999.90;;;5.20;99.90;;;;;;5053516;28;20040;-86
2022/12/25 08:22:10;;;;;;;1999.90;999.90;;;5.20;99.90;;;;;;5049485;28;20514;-83
2022/12/25 08:24:35;;;;;;;1999.90;999.90;;;4.90;99.90;;;;;;5048458;28;20033;-87
2022/12/25 08:27:02;;;;;;;1999.90;999.90;;;4.90;99.90;;;;;;5048422;28;20040;-88
2022/12/25 08:29:29;;;;;;;1999.90;999.90;;;4.90;99.90;;;;;;5055420;28;20036;-88
2022/12/25 08:31:55;;;;;;;1999.90;999.90;;;4.90;99.90;;;;;;5051341;28;20202;-89
2022/12/25 08:34:21;;;;;;;1999.90;999.90;;;4.90;99.90;;;;;;5052170;28;20690;-88
2022/12/25 08:36:47;;;;;;;1999.90;999.90;;;5.10;99.90;;;;;;5052294;28;20394;-89
2022/12/25 08:39:12;;;;;;;1999.90;999.90;;;5.20;99.90;;;;;;5049368;28;20025;-89
2022/12/25 08:41:39;;;;;;;1999.90;999.90;;;5.40;99.90;;;;;;5052125;28;20044;-89
2022/12/25 08:44:05;;;;;;;1999.90;999.90;;;5.50;99.90;;;;;;5056194;28;20025;-89
2022/12/25 08:46:31;;;;;;;1999.90;999.90;;;5.30;99.90;;;;;;5048203;28;20044;-88
2022/12/25 08:49:02;;;;;;;1999.90;999.90;;;5.30;99.90;;;;;;5050933;28;20372;-91
2022/12/25 08:51:27;;;;;;;1999.90;999.90;;;5.40;99.90;;;;;;5041163;28;20044;-82
2022/12/25 08:53:58;;;;;;;1999.90;999.90;;;5.40;99.90;;;;;;5050200;28;20033;-84
2022/12/25 08:56:23;;;;;;;1999.90;999.90;;;5.50;99.90;;;;;;5048580;28;20131;-83
2022/12/25 08:58:49;;;;;;;1999.90;999.90;;;5.60;99.90;;;;;;5047374;28;20148;-81
2022/12/25 09:01:15;;;;;;;1999.90;999.90;;;5.60;99.90;;;;;;5050803;28;20041;-80
2022/12/25 09:03:41;;;;;;;1999.90;999.90;;;5.60;99.90;;;;;;5046666;28;20040;-81
2022/12/25 09:06:13;;;;;;;1999.90;999.90;;;5.60;99.90;;;;;;5054656;28;20033;-80
2022/12/25 09:08:39;;;;;;;1999.90;999.90;;;5.60;99.90;;;;;;5037327;28;20037;-80
2022/12/25 09:11:08;;;;;;;1999.90;999.90;;;5.70;99.90;;;;;;5048236;28;20036;-83
2022/12/25 09:13:34;;;;;;;1999.90;999.90;;;5.70;99.90;;;;;;5046351;28;20036;-78
2022/12/25 09:16:09;;;;;;;1999.90;999.90;;;5.90;99.90;;;;;;5054010;28;20052;-79
2022/12/25 09:18:35;;;;;;;1999.90;999.90;;;6.00;99.90;;;;;;5051738;28;20025;-80
2022/12/25 09:21:02;;;;;;;1999.90;999.90;;;6.30;99.90;;;;;;5050422;28;20082;-79
2022/12/25 09:23:30;;;;;;;1999.90;999.90;;;6.40;99.90;;;;;;5041886;28;20143;-78
2022/12/25 09:25:58;;;;;;;1999.90;999.90;;;6.50;99.90;;;;;;5049125;28;20033;-78
2022/12/25 09:28:24;;;;;;;1999.90;999.90;;;6.40;99.90;;;;;;5048004;28;20029;-79
2022/12/25 09:30:52;;;;;;;1999.90;999.90;;;6.40;99.90;;;;;;5048351;28;20115;-78
2022/12/25 09:33:19;;;;;;;1999.90;999.90;;;6.40;99.90;;;;;;5036797;28;20024;-78
2022/12/25 09:35:55;;;;;;;1999.90;999.90;;;6.40;99.90;;;;;;5030880;28;20086;-80
2022/12/25 09:38:22;;;;;;;1999.90;999.90;;;6.30;99.90;;;;;;5037586;28;20148;-78
2022/12/25 09:41:00;;;;;;;1999.90;999.90;;;6.30;99.90;;;;;;5049428;28;20116;-77
2022/12/25 09:43:29;;;;;;;1999.90;999.90;;;6.40;99.90;;;;;;5051683;28;20029;-78
2022/12/25 09:45:56;;;;;;;1999.90;999.90;;;6.50;99.90;;;;;;5049624;28;20041;-79
2022/12/25 09:48:22;;;;;;;1999.90;999.90;;;6.60;99.90;;;;;;5050064;28;20032;-78
2022/12/25 09:51:03;;;;;;;1999.90;999.90;;;6.50;99.90;;;;;;5047693;28;20103;-79
2022/12/25 09:53:37;;;;;;;1999.90;999.90;;;6.60;99.90;;;;;;5048620;28;20029;-78
2022/12/25 09:56:05;;;;;;;1999.90;999.90;;;6.60;99.90;;;;;;5046094;28;20576;-78
2022/12/25 09:58:33;;;;;;;1999.90;999.90;;;6.80;99.90;;;;;;5049453;28;20037;-78
2022/12/25 10:01:07;;;;;;;1999.90;999.90;;;6.90;99.90;;;;;;5047839;28;21599;-79
2022/12/25 10:03:54;;;;;;;1999.90;999.90;;;7.00;99.90;;;;;;5044193;28;20028;-78
2022/12/25 10:06:28;;;;;;;1999.90;999.90;;;7.10;99.90;;;;;;5046952;28;20029;-77
2022/12/25 10:09:09;;;;;;;1999.90;999.90;;;7.00;99.90;;;;;;5047013;28;20029;-78
2022/12/25 10:12:00;;;;;;;1999.90;999.90;;;7.00;99.90;;;;;;5037608;28;20120;-78
2022/12/25 10:14:28;;;;;;;1999.90;999.90;;;6.90;99.90;;;;;;5039185;28;20057;-80
2022/12/25 10:17:12;;;;;;;1999.90;999.90;;;7.10;99.90;;;;;;5046390;28;20123;-78
2022/12/25 10:19:55;;;;;;;1999.90;999.90;;;7.30;99.90;;;;;;5030364;28;20036;-83
2022/12/25 10:22:38;;;;;;;1999.90;999.90;;;7.40;99.90;;;;;;5048068;28;20066;-80
2022/12/25 10:25:13;;;;;;;1999.90;999.90;;;7.50;99.90;;;;;;5029683;28;20033;-83
2022/12/25 10:27:41;;;;;;;1999.90;999.90;;;7.70;99.90;;;;;;5045527;28;20028;-80
2022/12/25 10:30:25;;;;;;;1999.90;999.90;;;7.80;99.90;;;;;;5046280;28;20056;-80
2022/12/25 10:32:53;;;;;;;1999.90;999.90;;;7.90;99.90;;;;;;5048657;28;20131;-80
2022/12/25 10:35:21;;;;;;;1999.90;999.90;;;8.00;99.90;;;;;;5052271;28;20064;-80
2022/12/25 10:38:05;;;;;;;1999.90;999.90;;;8.10;99.90;;;;;;5044485;28;20055;-81
2022/12/25 10:40:46;;;;;;;1999.90;999.90;;;8.30;99.90;;;;;;5047355;28;20525;-80
2022/12/25 10:43:37;;;;;;;1999.90;999.90;;;8.50;99.90;;;;;;5049933;28;20551;-82
2022/12/25 10:46:09;;;;;;;1999.90;999.90;;;8.70;99.90;;;;;;5051871;28;20016;-81
2022/12/25 10:48:48;;;;;;;1999.90;999.90;;;8.80;99.90;;;;;;5048684;28;20027;-80
2022/12/25 10:51:26;;;;;;;1999.90;999.90;;;8.90;99.90;;;;;;5027142;28;20133;-83
2022/12/25 10:53:52;;;;;;;1999.90;999.90;;;9.00;99.90;;;;;;5048544;28;20029;-82
2022/12/25 10:56:18;;;;;;;1999.90;999.90;;;9.00;99.90;;;;;;5047524;28;20067;-81
2022/12/25 10:58:44;;;;;;;1999.90;999.90;;;9.00;99.90;;;;;;5047986;28;20036;-82
2022/12/25 11:01:10;;;;;;;1999.90;999.90;;;9.20;99.90;;;;;;5046372;28;20507;-83
2022/12/25 11:03:42;;;;;;;1999.90;999.90;;;9.40;99.90;;;;;;5047872;28;20028;-81
2022/12/25 11:06:24;;;;;;;1999.90;999.90;;;9.50;99.90;;;;;;5049886;28;20033;-80
2022/12/25 11:09:01;;;;;;;1999.90;999.90;;;9.60;99.90;;;;;;5046906;28;20037;-81
2022/12/25 11:11:28;;;;;;;1999.90;999.90;;;9.60;99.90;;;;;;5050273;28;20033;-81
2022/12/25 11:13:59;;;;;;;1999.90;999.90;;;9.70;99.90;;;;;;5045758;28;20120;-79
2022/12/25 11:16:34;;;;;;;1999.90;999.90;;;10.00;99.90;;;;;;5047908;28;20029;-82
2022/12/25 11:19:01;;;;;;;1999.90;999.90;;;9.70;99.90;;;;;;5030148;28;20079;-81
2022/12/25 11:21:32;;;;;;;1999.90;999.90;;;9.50;99.90;;;;;;5050847;28;20053;-82
2022/12/25 11:23:58;;;;;;;1999.90;999.90;;;9.50;99.90;;;;;;5031345;28;20040;-79
2022/12/25 11:26:26;;;;;;;1999.90;999.90;;;9.40;99.90;;;;;;5049861;28;20041;-82
2022/12/25 11:28:53;;;;;;;1999.90;999.90;;;9.30;99.90;;;;;;5047462;28;20084;-82
2022/12/25 11:31:47;;;;;;;1999.90;999.90;;;9.10;99.90;;;;;;5046578;28;20104;-80
2022/12/25 11:34:18;;;;;;;1999.90;999.90;;;9.10;99.90;;;;;;5028578;28;20059;-82
2022/12/25 11:37:07;;;;;;;1999.90;999.90;;;9.30;99.90;;;;;;5048730;28;20494;-80
2022/12/25 11:39:38;;;;;;;1999.90;999.90;;;9.70;99.90;;;;;;5047691;28;20158;-80
2022/12/25 11:42:08;;;;;;;1999.90;999.90;;;9.90;99.90;;;;;;5046190;28;20033;-82
2022/12/25 11:44:39;;;;;;;;;;;10.10;99.90;;;;;;5048111;28;20029;-82
2022/12/25 11:47:46;;;;;;;1999.90;999.90;;;9.80;99.90;;;;;;5033799;28;19905;-80
2022/12/25 11:50:12;;;;;;;1999.90;999.90;;;9.80;99.90;;;;;;5028793;28;20083;-80
2022/12/25 11:52:42;;;;;;;1999.90;999.90;;;9.90;99.90;;;;;;5051009;28;20064;-81
2022/12/25 11:55:34;;;;;;;1999.90;999.90;;;9.90;99.90;;;;;;5042088;28;20025;-80
2022/12/25 11:58:05;;;;;;;1999.90;999.90;;;9.90;99.90;;;;;;5039498;28;20028;-80
2022/12/25 12:00:35;;;;;;;1999.90;999.90;;;10.20;99.90;;;;;;5049671;28;20049;-80
2022/12/25 12:03:29;;;;;;;1999.90;999.90;;;10.20;99.90;;;;;;5047322;28;20041;-82
2022/12/25 12:06:01;;;;;;;1999.90;999.90;;;10.00;99.90;;;;;;5033545;28;20037;-80
2022/12/25 12:08:26;;;;;;;1999.90;999.90;;;9.90;99.90;;;;;;5051817;28;20036;-81
2022/12/25 12:10:58;;;;;;;1999.90;999.90;;;9.60;99.90;;;;;;5050067;28;20564;-80
2022/12/25 12:13:51;;;;;;;1999.90;999.90;;;9.60;99.90;;;;;;5052543;28;20534;-81
2022/12/25 12:16:18;;;;;;;1999.90;999.90;;;9.70;99.90;;;;;;5049051;28;20024;-81
2022/12/25 12:18:44;;;;;;;1999.90;999.90;;;9.80;99.90;;;;;;5053028;28;20032;-80
2022/12/25 12:21:22;;;;;;;1999.90;999.90;;;9.80;99.90;;;;;;5050096;28;20124;-80
2022/12/25 12:23:55;;;;;;;1999.90;999.90;;;9.90;99.90;;;;;;5047195;28;20025;-79
2022/12/25 12:26:24;;;;;;;1999.90;999.90;;;10.00;99.90;;;;;;5053679;28;20061;-80
2022/12/25 12:28:54;;;;;;;1999.90;999.90;;;9.80;99.90;;;;;;5051183;28;20029;-82
2022/12/25 12:31:20;;;;;;;1999.90;999.90;;;9.60;99.90;;;;;;5039421;28;20041;-83
2022/12/25 12:33:58;;;;;;;1999.90;999.90;;;9.50;99.90;;;;;;5039266;28;20033;-81
2022/12/25 12:36:28;;;;;;;1999.90;999.90;;;9.40;99.90;;;;;;5045007;28;20149;-81
2022/12/25 12:38:57;;;;;;;1999.90;999.90;;;9.30;99.90;;;;;;5049047;28;20025;-83
2022/12/25 12:41:42;;;;;;;1999.90;999.90;;;9.30;99.90;;;;;;5050702;28;20037;-81
2022/12/25 12:44:11;;;;;;;1999.90;999.90;;;9.30;99.90;;;;;;5051080;28;20028;-81
2022/12/25 12:46:39;;;;;;;1999.90;999.90;;;9.30;99.90;;;;;;5052752;28;20074;-83
2022/12/25 12:49:24;;;;;;;1999.90;999.90;;;9.30;99.90;;;;;;5052485;28;20530;-82
2022/12/25 12:52:00;;;;;;;1999.90;999.90;;;9.30;99.90;;;;;;5047394;28;20025;-81
2022/12/25 12:54:26;;;;;;;1999.90;999.90;;;9.30;99.90;;;;;;5052760;28;20049;-80
2022/12/25 12:56:55;;;;;;;1999.90;999.90;;;9.40;99.90;;;;;;5049888;28;20061;-82
2022/12/25 12:59:22;;;;;;;1999.90;999.90;;;9.60;99.90;;;;;;5045227;28;20041;-80
2022/12/25 13:02:01;;;;;;;1999.90;999.90;;;9.60;99.90;;;;;;5017397;28;20454;-82
2022/12/25 13:04:53;;;;;;;1999.90;999.90;;;9.60;99.90;;;;;;5037517;28;20029;-83
2022/12/25 13:07:31;;;;;;;1999.90;999.90;;;9.50;99.90;;;;;;5037222;28;20061;-82
2022/12/25 13:09:56;;;;;;;1999.90;999.90;;;9.60;99.90;;;;;;5034885;28;20385;-82
2022/12/25 13:12:22;;;;;;;1999.90;999.90;;;9.70;99.90;;;;;;5039504;28;20039;-81
2022/12/25 13:14:49;;;;;;;1999.90;999.90;;;9.80;99.90;;;;;;5035900;28;20033;-80
2022/12/25 13:17:21;;;;;;;1999.90;999.90;;;10.00;99.90;;;;;;5039503;28;20022;-83
2022/12/25 13:19:54;;;;;;;1999.90;999.90;;;10.20;99.90;;;;;;5034377;28;20033;-82
2022/12/25 13:22:35;;;;;;;1999.90;999.90;;;10.30;99.90;;;;;;5037594;28;20029;-83
2022/12/25 13:25:04;;;;;;;1999.90;999.90;;;10.40;99.90;;;;;;5030396;28;20073;-80
2022/12/25 13:27:32;;;;;;;1999.90;999.90;;;10.40;99.90;;;;;;5043169;28;20029;-82
2022/12/25 13:29:58;;;;;;;1999.90;999.90;;;10.40;99.90;;;;;;5037599;28;20568;-81
2022/12/25 13:32:32;;;;;;;1999.90;999.90;;;10.40;99.90;;;;;;5031561;28;20042;-81
2022/12/25 13:35:00;;;;;;;1999.90;999.90;;;10.50;99.90;;;;;;5040214;28;20037;-80
2022/12/25 13:37:29;;;;;;;1999.90;999.90;;;10.50;99.90;;;;;;5033180;28;20107;-82
2022/12/25 13:40:00;;;;;;;1999.90;999.90;;;10.50;99.90;;;;;;5042332;28;20037;-83
2022/12/25 13:42:29;;;;;;;1999.90;999.90;;;10.60;99.90;;;;;;5018049;28;20098;-81
2022/12/25 13:44:59;;;;;;;1999.90;999.90;;;10.60;99.90;;;;;;5037399;28;20037;-80
2022/12/25 13:47:32;;;;;;;1999.90;999.90;;;10.60;99.90;;;;;;5035167;28;20103;-81
2022/12/25 13:50:00;;;;;;;1999.90;999.90;;;10.70;99.90;;;;;;5036907;28;20038;-80
2022/12/25 13:52:31;;;;;;;1999.90;999.90;;;10.80;99.90;;;;;;5037551;28;20104;-82
2022/12/25 13:55:14;;;;;;;1999.90;999.90;;;10.80;99.90;;;;;;5032241;28;20711;-83
2022/12/25 13:57:44;;;;;;;1999.90;999.90;;;10.70;99.90;;;;;;5032877;28;20048;-82
2022/12/25 14:00:22;;;;;;;1999.90;999.90;;;10.70;99.90;;;;;;5042067;28;20102;-83
2022/12/25 14:02:49;;;;;;;1999.90;999.90;;;10.60;99.90;;;;;;5030659;28;20056;-83